Latest Weather Observations for Cape Ferguson

IDQ60801

Issued at 3:32 pm EST Friday 29 July 2016 (issued every 30 minutes, with the page automatically refreshed every 10 minutes)

About weather observations | Map of weather stations | Latest weather observations for QLD | Other Formats
Station Details ID: 032182 Name: CAPE FERGUSON NTC AWS Lat: -19.28 Lon: 147.06 Height: 0.0 m
Data from the previous 72 hours. | See also: Recent months for locations in Queensland
Date/Time
EST
Temp
°C
App
Temp
°C
Dew
Point
°C
Rel
Hum
%
Delta-T
°C
Wind Press
QNH
hPa
Press
MSL
hPa
Rain since
9am
mm
Dir  Spd
km/h
Gust
km/h
Spd
kts
Gust
kts
29/03:30pm 22.5 - - - - E 17 19 9 10 1016.6 1016.6 -
29/03:00pm 22.3 - - - - E 17 20 9 11 1016.8 1016.8 -
29/02:30pm 22.2 - - - - E 11 15 6 8 1016.9 1016.9 -
29/02:00pm 22.4 - - - - ESE 11 17 6 9 1017.1 1017.1 -
29/01:30pm 22.1 - - - - SE 11 15 6 8 1017.5 1017.5 -
29/01:00pm 21.7 - - - - SSE 15 19 8 10 1017.9 1017.9 -
29/12:30pm 21.3 - - - - SE 17 22 9 12 1018.6 1018.6 -
29/12:00pm 20.7 - - - - SSE 19 24 10 13 1019.2 1019.2 -
29/11:30am 20.2 - - - - SE 19 26 10 14 1019.6 1019.6 -
29/11:00am 19.9 - - - - SSE 15 20 8 11 1020.0 1020.0 -
29/10:30am 19.3 - - - - SSE 20 26 11 14 1020.4 1020.4 -
29/10:00am 18.8 - - - - SSE 22 28 12 15 1021.0 1021.0 -
29/09:30am 18.5 - - - - SSE 24 30 13 16 1021.0 1021.0 -
29/09:00am 18.4 - - - - SSE 24 30 13 16 1020.9 1020.9 -
29/08:30am 18.3 - - - - S 24 30 13 16 1020.6 1020.6 -
29/08:00am 18.2 - - - - S 22 28 12 15 1020.5 1020.5 -
29/07:30am 18.1 - - - - S 20 24 11 13 1020.5 1020.5 -
29/07:00am 17.9 - - - - S 20 28 11 15 1020.0 1020.0 -
29/06:30am 17.5 - - - - S 22 28 12 15 1019.6 1019.6 -
29/06:00am 17.5 - - - - SSW 20 28 11 15 1019.5 1019.5 -
29/05:30am 18.0 - - - - S 24 30 13 16 1019.2 1019.2 -
29/05:00am 17.8 - - - - S 22 28 12 15 1018.9 1018.9 -
29/04:30am 17.7 - - - - S 22 28 12 15 1018.8 1018.8 -
29/04:00am 17.6 - - - - S 19 24 10 13 1018.8 1018.8 -
29/03:30am 18.4 - - - - S 20 24 11 13 1018.8 1018.8 -
29/03:00am 18.0 - - - - S 19 24 10 13 1018.9 1018.9 -
29/02:30am 19.1 - - - - SSE 28 37 15 20 1019.2 1019.2 -
29/02:00am 18.5 - - - - SSE 20 26 11 14 1019.2 1019.2 -
29/01:30am 18.2 - - - - S 20 26 11 14 1019.3 1019.3 -
29/01:00am 17.9 - - - - S 17 22 9 12 1019.6 1019.6 -
29/12:30am 18.6 - - - - SSE 17 24 9 13 1019.8 1019.8 -
29/12:00am 18.8 - - - - S 20 26 11 14 1020.0 1020.0 -
 
Date/Time
EST
Temp
°C
App
Temp
°C
Dew
Point
°C
Rel
Hum
%
Delta-T
°C
Wind Press
QNH
hPa
Press
MSL
hPa
Rain since
9am
mm
Dir  Spd
km/h
Gust
km/h
Spd
kts
Gust
kts
28/11:30pm 19.5 - - - - SSE 22 28 12 15 1020.3 1020.3 -
28/11:00pm 20.2 - - - - S 22 28 12 15 1020.5 1020.5 -
28/10:30pm 20.5 - - - - SSE 20 28 11 15 1020.5 1020.5 -
28/10:00pm 20.8 - - - - S 17 20 9 11 1020.4 1020.4 -
28/09:30pm 21.4 - - - - SSE 20 30 11 16 1020.3 1020.3 -
28/09:00pm 22.1 - - - - ESE 24 30 13 16 1020.4 1020.4 -
28/08:30pm 22.1 - - - - ESE 24 28 13 15 1020.2 1020.2 -
28/08:00pm 22.2 - - - - ESE 24 28 13 15 1019.9 1019.9 -
28/07:30pm 22.2 - - - - ESE 24 30 13 16 1019.7 1019.7 -
28/07:00pm 22.1 - - - - E 26 30 14 16 1019.4 1019.4 -
28/06:30pm 22.3 - - - - E 28 32 15 17 1019.1 1019.1 -
28/06:00pm 22.6 - - - - E 26 32 14 17 1018.7 1018.7 -
28/05:30pm 22.7 - - - - E 26 32 14 17 1018.6 1018.6 -
28/05:00pm 22.8 - - - - E 26 30 14 16 1018.5 1018.5 -
28/04:30pm 22.8 - - - - E 26 32 14 17 1018.2 1018.2 -
28/04:00pm 22.7 - - - - E 26 32 14 17 1018.1 1018.1 -
28/03:30pm 22.7 - - - - E 24 28 13 15 1018.1 1018.1 -
28/03:00pm 22.6 - - - - E 24 28 13 15 1018.1 1018.1 -
28/02:30pm 22.5 - - - - E 20 26 11 14 1018.1 1018.1 -
28/02:00pm 22.8 - - - - ENE 13 15 7 8 1018.0 1018.0 -
28/01:30pm 22.7 - - - - E 11 15 6 8 1018.4 1018.4 -
28/01:00pm 22.6 - - - - ESE 9 13 5 7 1018.9 1018.9 -
28/12:30pm 22.3 - - - - SE 13 17 7 9 1019.5 1019.5 -
28/12:00pm 21.9 - - - - SE 15 24 8 13 1020.0 1020.0 -
28/11:30am 21.5 - - - - SSE 20 26 11 14 1020.4 1020.4 -
28/11:00am 21.4 - - - - SSE 20 26 11 14 1020.7 1020.7 -
28/10:30am 20.9 - - - - SSE 20 26 11 14 1020.8 1020.8 -
28/10:00am 20.7 - - - - S 24 30 13 16 1021.1 1021.1 -
28/09:30am 20.8 - - - - S 28 35 15 19 1021.2 1021.2 -
28/09:00am 20.6 - - - - S 33 39 18 21 1021.0 1021.0 -
28/08:30am 20.5 - - - - S 30 35 16 19 1020.8 1020.8 -
28/08:00am 20.6 - - - - S 32 39 17 21 1020.5 1020.5 -
28/07:30am 20.8 - - - - S 33 41 18 22 1020.1 1020.1 -
28/07:00am 20.8 - - - - S 32 39 17 21 1019.8 1019.8 -
28/06:30am 21.1 - - - - S 28 37 15 20 1019.7 1019.7 -
28/06:00am 21.3 - - - - S 28 35 15 19 1019.4 1019.4 -
28/05:30am 21.2 - - - - S 20 26 11 14 1019.5 1019.5 -
28/05:00am 21.4 - - - - S 26 30 14 16 1019.3 1019.3 -
28/04:30am 21.6 - - - - S 26 32 14 17 1019.1 1019.1 -
28/04:00am 21.8 - - - - S 22 28 12 15 1019.1 1019.1 -
28/03:30am 21.9 - - - - S 24 28 13 15 1019.1 1019.1 -
28/03:00am 22.1 - - - - S 26 32 14 17 1019.3 1019.3 -
28/02:30am 22.3 - - - - SSE 24 28 13 15 1019.3 1019.3 -
28/02:00am 22.5 - - - - SSE 24 28 13 15 1019.3 1019.3 -
28/01:30am 22.6 - - - - SSE 24 28 13 15 1019.3 1019.3 -
28/01:00am 23.0 - - - - S 24 30 13 16 1019.3 1019.3 -
28/12:30am 22.6 - - - - S 19 22 10 12 1019.5 1019.5 -
28/12:00am 23.2 - - - - SSE 26 32 14 17 1019.4 1019.4 -
 
Date/Time
EST
Temp
°C
App
Temp
°C
Dew
Point
°C
Rel
Hum
%
Delta-T
°C
Wind Press
QNH
hPa
Press
MSL
hPa
Rain since
9am
mm
Dir  Spd
km/h
Gust
km/h
Spd
kts
Gust
kts
27/11:30pm 22.7 - - - - S 13 17 7 9 1019.4 1019.4 -
27/11:00pm 23.0 - - - - SSE 11 17 6 9 1019.6 1019.6 -
27/10:30pm 23.0 - - - - S 7 11 4 6 1019.6 1019.6 -
27/10:00pm 23.4 - - - - SSE 11 15 6 8 1019.4 1019.4 -
27/09:30pm 23.4 - - - - SSE 13 15 7 8 1019.2 1019.2 -
27/09:00pm 23.4 - - - - SSE 13 17 7 9 1019.1 1019.1 -
27/08:30pm 23.8 - - - - ESE 13 15 7 8 1018.9 1018.9 -
27/08:00pm 23.7 - - - - ESE 9 13 5 7 1018.5 1018.5 -
27/07:30pm 23.2 - - - - NE 4 7 2 4 1017.9 1017.9 -
27/07:00pm 23.5 - - - - ENE 4 7 2 4 1017.4 1017.4 -
27/06:30pm 23.5 - - - - ENE 7 11 4 6 1016.9 1016.9 -
27/06:00pm 23.5 - - - - ENE 7 15 4 8 1016.7 1016.7 -
27/05:30pm 23.5 - - - - NE 7 15 4 8 1016.2 1016.2 -
27/05:00pm 23.6 - - - - NE 9 19 5 10 1016.0 1016.0 -
27/04:30pm 23.9 - - - - NNE 9 17 5 9 1015.7 1015.7 -
27/04:00pm 24.1 - - - - ENE 9 15 5 8 1015.5 1015.5 -
27/03:30pm 24.1 - - - - ENE 11 19 6 10 1015.5 1015.5 -
27/03:00pm 23.8 - - - - ENE 17 20 9 11 1015.4 1015.4 -
27/02:30pm 23.5 - - - - ENE 19 20 10 11 1015.5 1015.5 -
27/02:00pm 23.4 - - - - ENE 15 19 8 10 1015.8 1015.8 -
27/01:30pm 23.5 - - - - ENE 15 17 8 9 1016.1 1016.1 -
27/01:00pm 23.2 - - - - ENE 13 15 7 8 1016.4 1016.4 -
27/12:30pm 23.1 - - - - ENE 9 13 5 7 1016.7 1016.7 -
27/12:00pm 22.9 - - - - E 9 11 5 6 1016.9 1016.9 -
27/11:30am 22.6 - - - - ENE 7 11 4 6 1017.5 1017.5 -
27/11:00am 22.4 - - - - SE 7 11 4 6 1017.8 1017.8 -
27/10:30am 22.2 - - - - SE 13 17 7 9 1018.1 1018.1 -
27/10:00am 22.1 - - - - ESE 11 15 6 8 1018.4 1018.4 -
27/09:30am 21.8 - - - - SE 17 20 9 11 1018.6 1018.6 -
27/09:00am 21.5 - - - - SSE 19 24 10 13 1018.5 1018.5 -
27/08:30am 21.4 - - - - SSE 20 24 11 13 1018.2 1018.2 -
27/08:00am 21.2 - - - - S 24 28 13 15 1017.9 1017.9 -
27/07:30am 20.6 - - - - S 20 24 11 13 1017.9 1017.9 -
27/07:00am 20.9 - - - - S 20 24 11 13 1017.6 1017.6 -
27/06:30am 21.1 - - - - SSE 13 17 7 9 1017.4 1017.4 -
27/06:00am 21.2 - - - - SSE 19 22 10 12 1017.1 1017.1 -
27/05:30am 21.3 - - - - SSE 20 24 11 13 1016.8 1016.8 -
27/05:00am 21.3 - - - - SSE 22 26 12 14 1016.5 1016.5 -
27/04:30am 21.6 - - - - SSE 19 24 10 13 1016.2 1016.2 -
27/04:00am 21.6 - - - - SSE 20 24 11 13 1016.2 1016.2 -
27/03:30am 22.1 - - - - SE 19 22 10 12 1016.4 1016.4 -
27/03:00am 22.1 - - - - SE 17 20 9 11 1016.5 1016.5 -
27/02:30am 22.3 - - - - SE 17 20 9 11 1016.5 1016.5 -
27/02:00am 22.6 - - - - SSE 15 24 8 13 1016.6 1016.6 -
27/01:30am 22.9 - - - - SE 15 19 8 10 1016.7 1016.7 -
27/01:00am 22.7 - - - - SE 15 17 8 9 1016.8 1016.8 -
27/12:30am 22.8 - - - - SE 13 17 7 9 1016.9 1016.9 -
27/12:00am 23.0 - - - - SE 15 17 8 9 1016.9 1016.9 -
 
Date/Time
EST
Temp
°C
App
Temp
°C
Dew
Point
°C
Rel
Hum
%
Delta-T
°C
Wind Press
QNH
hPa
Press
MSL
hPa
Rain since
9am
mm
Dir  Spd
km/h
Gust
km/h
Spd
kts
Gust
kts
26/11:30pm 23.5 - - - - ESE 17 20 9 11 1016.9 1016.9 -
26/11:00pm 23.6 - - - - ESE 13 17 7 9 1016.8 1016.8 -
26/10:30pm 23.6 - - - - ESE 15 17 8 9 1016.8 1016.8 -
26/10:00pm 23.6 - - - - E 13 17 7 9 1016.8 1016.8 -
26/09:30pm 23.6 - - - - E 15 17 8 9 1016.7 1016.7 -
26/09:00pm 23.7 - - - - ESE 13 17 7 9 1016.6 1016.6 -
26/08:30pm 23.6 - - - - ESE 13 17 7 9 1016.5 1016.5 -
26/08:00pm 23.6 - - - - ESE 17 19 9 10 1016.2 1016.2 -
26/07:30pm 23.5 - - - - E 17 19 9 10 1015.9 1015.9 -
26/07:00pm 23.4 - - - - E 17 19 9 10 1015.7 1015.7 -
26/06:30pm 23.4 - - - - E 17 20 9 11 1015.4 1015.4 -
26/06:00pm 23.4 - - - - E 17 19 9 10 1015.1 1015.1 -
26/05:30pm 23.4 - - - - E 19 22 10 12 1015.0 1015.0 -
26/05:00pm 23.4 - - - - E 20 22 11 12 1014.6 1014.6 -
26/04:30pm 23.6 - - - - E 19 20 10 11 1014.5 1014.5 -
26/04:00pm 23.6 - - - - E 17 22 9 12 1014.3 1014.3 -

Other Formats:

Comma delimited format used in spreadsheet applications
http://www.bom.gov.au/fwo/IDQ60801/IDQ60801.94297.axf

JavaScript Object Notation format (JSON) in row-major order
http://www.bom.gov.au/fwo/IDQ60801/IDQ60801.94297.json